Blue Star — WDJ5868 — position and weather

sailwx.info

Track history (hours):
 
Tides and Currents Weather Stations Pressure Air Temp Water Temp Dewpoint Dewpoint Depression Visibility Wind Speed Wind Dir Waves Ship Positions

Blue Star

Owner: Blue Star Marine, LAKE CHARLES, LA. More information available from US FCC via Universal Licensing System and Coast Guard Vessel Documentation Center.

Last reported at 2018-Feb-22 15:57 UTC. Time now 2018-Feb-23 10:38 UTC.
Position N 29°31' W 093°42'.

Length 12 m; draft 1.8 m.

Type: Ship. MMSI: 367792040.

Date/timePositionNaut miles runAvg speedWind from/ knotsBaromVisibWave heightAir tempDewpointWater temp
2018-Feb-22 15:57N 29°31' W 093°42'817.3
2018-Feb-22 15:30N 29°37' W 093°48'815.0
2018-Feb-22 15:00N 29°43' W 093°52'0 0.6
2018-Feb-22 14:30N 29°43' W 093°52'0 0.0
2018-Feb-22 14:00N 29°43' W 093°52'0 0.0
2018-Feb-22 13:30N 29°43' W 093°52'0 0.0
2018-Feb-22 13:00N 29°43' W 093°52'0 0.0
2018-Feb-22 12:29N 29°43' W 093°52'0 0.0
2018-Feb-22 12:00N 29°43' W 093°52'2 3.8
2018-Feb-22 11:30N 29°42' W 093°51'510.8
2018-Feb-22 11:00N 29°39' W 093°46'917.1
2018-Feb-22 10:30N 29°40' W 093°36'2610.1
2018-Feb-22 07:58N 30°01' W 093°20'10 8.8
2018-Feb-22 06:50N 30°11' W 093°19'  
2018-Feb-15 03:15N 30°12' W 093°14'1 3.7
2018-Feb-15 03:00N 30°13' W 093°15'5 8.6
2018-Feb-15 02:22N 30°09' W 093°20'410.1
2018-Feb-15 02:00N 30°05' W 093°20'713.9
2018-Feb-15 01:30N 29°58' W 093°20'5 0.6
2018-Feb-14 16:35N 29°53' W 093°21'218.8
2018-Feb-14 16:30N 29°55' W 093°20'815.2
2018-Feb-14 16:00N 30°02' W 093°20'510.2
2018-Feb-14 15:30N 30°08' W 093°20'4 9.0
2018-Feb-14 15:00N 30°12' W 093°18'3 0.1
2018-Feb-13 18:41N 30°12' W 093°14'0 0.6
2018-Feb-13 18:30N 30°12' W 093°14'4 8.0
2018-Feb-13 18:00N 30°11' W 093°19'4 9.0
2018-Feb-13 17:30N 30°06' W 093°20'5 9.3
2018-Feb-13 17:00N 30°02' W 093°20'917.3
2018-Feb-13 16:30N 29°53' W 093°21'0 0.0
2018-Feb-13 08:04N 29°53' W 093°21'1 8.7
2018-Feb-13 07:59N 29°54' W 093°21'5 8.9
2018-Feb-13 07:28N 29°58' W 093°20'4 9.3
2018-Feb-13 07:00N 30°03' W 093°20'5 9.4
2018-Feb-13 06:31N 30°07' W 093°20'4 8.3
2018-Feb-13 06:00N 30°11' W 093°18'  
Track history (hours):
 
Tides and Currents Weather Stations Pressure Air Temp Water Temp Dewpoint Dewpoint Depression Visibility Wind Speed Wind Dir Waves Ship Positions

Blue Star

Owner: Blue Star Marine, LAKE CHARLES, LA. More information available from US FCC via Universal Licensing System and Coast Guard Vessel Documentation Center.

Last reported at 2018-Feb-22 15:57 UTC. Time now 2018-Feb-23 10:38 UTC.
Position N 29°31' W 093°42'.

Length 12 m; draft 1.8 m.

Type: Ship. MMSI: 367792040.

Date/timePositionNaut miles runAvg speedWind from/ knotsBaromVisibWave heightAir tempDewpointWater temp
2018-Feb-22 15:57N 29°31' W 093°42'817.3
2018-Feb-22 15:30N 29°37' W 093°48'815.0
2018-Feb-22 15:00N 29°43' W 093°52'0 0.6
2018-Feb-22 14:30N 29°43' W 093°52'0 0.0
2018-Feb-22 14:00N 29°43' W 093°52'0 0.0
2018-Feb-22 13:30N 29°43' W 093°52'0 0.0
2018-Feb-22 13:00N 29°43' W 093°52'0 0.0
2018-Feb-22 12:29N 29°43' W 093°52'0 0.0
2018-Feb-22 12:00N 29°43' W 093°52'2 3.8
2018-Feb-22 11:30N 29°42' W 093°51'510.8
2018-Feb-22 11:00N 29°39' W 093°46'917.1
2018-Feb-22 10:30N 29°40' W 093°36'2610.1
2018-Feb-22 07:58N 30°01' W 093°20'10 8.8
2018-Feb-22 06:50N 30°11' W 093°19'  
2018-Feb-15 03:15N 30°12' W 093°14'1 3.7
2018-Feb-15 03:00N 30°13' W 093°15'5 8.6
2018-Feb-15 02:22N 30°09' W 093°20'410.1
2018-Feb-15 02:00N 30°05' W 093°20'713.9
2018-Feb-15 01:30N 29°58' W 093°20'5 0.6
2018-Feb-14 16:35N 29°53' W 093°21'218.8
2018-Feb-14 16:30N 29°55' W 093°20'815.2
2018-Feb-14 16:00N 30°02' W 093°20'510.2
2018-Feb-14 15:30N 30°08' W 093°20'4 9.0
2018-Feb-14 15:00N 30°12' W 093°18'3 0.1
2018-Feb-13 18:41N 30°12' W 093°14'0 0.6
2018-Feb-13 18:30N 30°12' W 093°14'4 8.0
2018-Feb-13 18:00N 30°11' W 093°19'4 9.0
2018-Feb-13 17:30N 30°06' W 093°20'5 9.3
2018-Feb-13 17:00N 30°02' W 093°20'917.3
2018-Feb-13 16:30N 29°53' W 093°21'0 0.0
2018-Feb-13 08:04N 29°53' W 093°21'1 8.7
2018-Feb-13 07:59N 29°54' W 093°21'5 8.9
2018-Feb-13 07:28N 29°58' W 093°20'4 9.3
2018-Feb-13 07:00N 30°03' W 093°20'5 9.4
2018-Feb-13 06:31N 30°07' W 093°20'4 8.3
2018-Feb-13 06:00N 30°11' W 093°18'  

Dump ship's entire track history